Time;durP1;ratioP1;P1;durP2;ratioP2;P2;SDS_P1;SDS_P2;PMS_P1;PMS_P2;Temp;Humidity;BMP_temperature;BMP_pressure;BME280_temperature;BME280_humidity;BME280_pressure;Samples;Min_cycle;Max_cycle;Signal;HPM_P1;HPM_P2
2023/12/02 00:02:04;;;;;;;13.70;12.50;;;;;;;;;;5010913;28;20920;-53
2023/12/02 00:04:31;;;;;;;13.73;12.73;;;;;;;;;;5010718;28;20526;-52
2023/12/02 00:06:58;;;;;;;13.07;11.97;;;;;;;;;;5010567;28;20496;-54
2023/12/02 00:09:26;;;;;;;13.17;12.07;;;;;;;;;;5010767;28;20691;-53
2023/12/02 00:11:53;;;;;;;12.90;11.80;;;;;;;;;;5010632;28;20455;-54
2023/12/02 00:14:20;;;;;;;14.30;13.10;;;;;;;;;;5010904;28;20877;-52
2023/12/02 00:16:49;;;;;;;16.03;14.73;;;;;;;;;;5010624;28;20445;-55
2023/12/02 00:19:16;;;;;;;13.83;12.50;;;;;;;;;;5010537;28;20509;-52
2023/12/02 00:21:44;;;;;;;11.80;10.80;;;;;;;;;;5010420;28;20849;-53
2023/12/02 00:24:11;;;;;;;12.27;11.30;;;;;;;;;;5010414;28;20467;-52
2023/12/02 00:26:40;;;;;;;11.57;10.70;;;;;;;;;;5010531;28;20576;-53
2023/12/02 00:29:07;;;;;;;9.37;8.60;;;;;;;;;;5010837;28;20819;-54
2023/12/02 00:31:34;;;;;;;7.80;7.10;;;;;;;;;;5010390;28;20533;-52
2023/12/02 00:34:03;;;;;;;7.83;7.23;;;;;;;;;;5010720;28;20826;-53
2023/12/02 00:36:33;;;;;;;8.33;7.57;;;;;;;;;;5010268;28;20452;-54
2023/12/02 00:39:00;;;;;;;9.43;8.63;;;;;;;;;;5010505;28;20952;-54
2023/12/02 00:41:28;;;;;;;8.77;8.07;;;;;;;;;;5010392;28;20875;-54
2023/12/02 00:43:55;;;;;;;7.53;6.93;;;;;;;;;;5010048;28;20471;-53
2023/12/02 00:46:23;;;;;;;8.10;7.33;;;;;;;;;;5010555;28;20914;-54
2023/12/02 00:48:50;;;;;;;7.10;6.50;;;;;;;;;;5009956;28;20842;-53
2023/12/02 00:51:19;;;;;;;6.23;5.67;;;;;;;;;;5010411;28;20452;-52
2023/12/02 00:53:46;;;;;;;7.67;6.97;;;;;;;;;;5010139;28;20813;-52
2023/12/02 00:56:13;;;;;;;6.97;6.00;;;;;;;;;;5013775;28;20459;-53
2023/12/02 00:58:41;;;;;;;7.30;6.70;;;;;;;;;;5014100;28;20486;-52
2023/12/02 01:01:09;;;;;;;7.53;6.93;;;;;;;;;;5014033;28;20455;-53
2023/12/02 01:03:36;;;;;;;9.20;8.30;;;;;;;;;;5013779;28;20560;-50
2023/12/02 01:06:04;;;;;;;8.67;7.97;;;;;;;;;;5012804;28;20858;-53
2023/12/02 01:08:33;;;;;;;7.33;6.73;;;;;;;;;;5012271;28;21073;-53
2023/12/02 01:11:00;;;;;;;8.17;7.43;;;;;;;;;;5012587;28;20930;-51
2023/12/02 01:13:27;;;;;;;7.80;7.10;;;;;;;;;;5013604;28;20443;-54
2023/12/02 01:15:55;;;;;;;9.80;9.00;;;;;;;;;;5013612;28;20502;-53
2023/12/02 01:18:22;;;;;;;9.07;8.37;;;;;;;;;;5014127;28;20455;-54
2023/12/02 01:20:50;;;;;;;8.90;7.97;;;;;;;;;;5013904;28;20505;-55
2023/12/02 01:23:17;;;;;;;7.93;7.13;;;;;;;;;;5013964;28;20439;-53
2023/12/02 01:25:46;;;;;;;6.90;6.30;;;;;;;;;;5013476;28;20447;-53
2023/12/02 01:28:13;;;;;;;6.90;6.30;;;;;;;;;;5013732;28;20475;-52
2023/12/02 01:30:40;;;;;;;6.50;5.60;;;;;;;;;;5013425;28;20453;-53
2023/12/02 01:33:08;;;;;;;5.20;4.80;;;;;;;;;;5013546;28;20813;-54
2023/12/02 01:35:35;;;;;;;6.30;5.80;;;;;;;;;;5013675;28;20494;-53
2023/12/02 01:38:02;;;;;;;6.97;6.30;;;;;;;;;;5013265;28;20812;-53
2023/12/02 01:40:29;;;;;;;6.47;5.87;;;;;;;;;;5013644;28;20513;-52
2023/12/02 01:42:58;;;;;;;7.37;5.80;;;;;;;;;;5013314;28;20510;-54
2023/12/02 01:45:25;;;;;;;5.50;5.00;;;;;;;;;;5013316;28;20554;-54
2023/12/02 01:47:53;;;;;;;5.47;4.97;;;;;;;;;;5013021;28;20492;-55
2023/12/02 01:50:21;;;;;;;6.37;4.80;;;;;;;;;;5013063;28;20459;-53
2023/12/02 01:52:48;;;;;;;4.60;4.20;;;;;;;;;;5013352;28;20446;-53
2023/12/02 01:55:15;;;;;;;5.13;4.67;;;;;;;;;;5013119;28;20470;-54
2023/12/02 01:57:43;;;;;;;4.73;4.30;;;;;;;;;;5012876;28;20509;-54
2023/12/02 02:00:13;;;;;;;4.00;3.60;;;;;;;;;;5013406;28;20455;-52
2023/12/02 02:02:40;;;;;;;4.47;3.83;;;;;;;;;;5012814;28;20451;-54
2023/12/02 02:05:08;;;;;;;4.03;3.47;;;;;;;;;;5012710;28;20475;-54
2023/12/02 02:07:35;;;;;;;4.30;3.40;;;;;;;;;;5012469;28;20482;-54
2023/12/02 02:10:02;;;;;;;3.50;3.20;;;;;;;;;;5012466;28;20442;-53
2023/12/02 02:12:30;;;;;;;3.67;3.30;;;;;;;;;;5013134;28;20524;-55
2023/12/02 02:14:57;;;;;;;3.00;2.63;;;;;;;;;;5012717;28;20463;-54
2023/12/02 02:17:26;;;;;;;3.57;2.90;;;;;;;;;;5012970;28;20448;-56
2023/12/02 02:19:53;;;;;;;2.83;2.50;;;;;;;;;;5012420;28;20493;-54
2023/12/02 02:22:22;;;;;;;4.80;3.27;;;;;;;;;;5011865;28;20443;-54
2023/12/02 02:24:49;;;;;;;2.87;2.57;;;;;;;;;;5011997;28;20462;-53
2023/12/02 02:27:16;;;;;;;2.80;2.50;;;;;;;;;;5012642;28;20873;-54
2023/12/02 02:29:44;;;;;;;2.47;2.13;;;;;;;;;;5012633;28;20448;-53
2023/12/02 02:32:11;;;;;;;2.37;2.17;;;;;;;;;;5012051;28;20829;-56
2023/12/02 02:34:39;;;;;;;3.50;2.57;;;;;;;;;;5012133;28;20471;-53
2023/12/02 02:37:06;;;;;;;2.47;2.27;;;;;;;;;;5012292;28;20542;-54
2023/12/02 02:39:35;;;;;;;2.90;2.70;;;;;;;;;;5010220;28;20453;-54
2023/12/02 02:42:06;;;;;;;2.80;2.40;;;;;;;;;;5012155;28;20440;-54
2023/12/02 02:44:33;;;;;;;2.20;1.70;;;;;;;;;;5011634;28;20604;-51
2023/12/02 02:47:00;;;;;;;2.43;2.10;;;;;;;;;;5012183;28;20453;-55
2023/12/02 02:49:28;;;;;;;2.63;2.17;;;;;;;;;;5011747;28;20535;-55
2023/12/02 02:51:55;;;;;;;2.40;1.90;;;;;;;;;;5011583;28;20508;-54
2023/12/02 02:54:23;;;;;;;2.60;2.03;;;;;;;;;;5011873;28;21004;-53
2023/12/02 02:56:52;;;;;;;2.43;1.80;;;;;;;;;;5011775;28;20449;-55
2023/12/02 02:59:19;;;;;;;1.90;1.40;;;;;;;;;;5011479;28;20442;-54
2023/12/02 03:01:48;;;;;;;2.10;1.70;;;;;;;;;;5011436;28;20937;-54
2023/12/02 03:04:15;;;;;;;2.33;1.73;;;;;;;;;;5011700;28;20473;-53
2023/12/02 03:06:43;;;;;;;2.60;1.80;;;;;;;;;;5011923;28;20452;-53
2023/12/02 03:09:11;;;;;;;2.37;1.67;;;;;;;;;;5010997;28;20834;-54
2023/12/02 03:11:37;;;;;;;2.53;1.50;;;;;;;;;;5011579;28;20458;-53
2023/12/02 03:14:06;;;;;;;2.10;1.57;;;;;;;;;;5011626;28;20462;-56
2023/12/02 03:16:33;;;;;;;2.80;2.00;;;;;;;;;;5011392;28;20447;-52
2023/12/02 03:19:01;;;;;;;1.80;1.43;;;;;;;;;;5010357;28;20513;-55
2023/12/02 03:21:29;;;;;;;2.40;1.73;;;;;;;;;;5010596;28;20530;-53
2023/12/02 03:23:56;;;;;;;2.20;1.90;;;;;;;;;;5010449;28;20463;-54
2023/12/02 03:26:25;;;;;;;2.77;1.57;;;;;;;;;;5010447;28;20443;-53
2023/12/02 03:28:53;;;;;;;5.87;2.40;;;;;;;;;;5011056;28;20491;-53
2023/12/02 03:31:21;;;;;;;3.07;2.40;;;;;;;;;;5011187;28;20671;-52
2023/12/02 03:33:49;;;;;;;2.20;1.90;;;;;;;;;;5010993;28;20633;-53
2023/12/02 03:36:16;;;;;;;5.70;3.50;;;;;;;;;;5011616;28;20447;-53
2023/12/02 03:38:43;;;;;;;4.13;3.20;;;;;;;;;;5011052;28;20450;-52
2023/12/02 03:41:10;;;;;;;7.03;5.33;;;;;;;;;;5011287;28;20443;-53
2023/12/02 03:43:38;;;;;;;4.57;3.33;;;;;;;;;;5010771;28;21014;-54
2023/12/02 03:46:06;;;;;;;2.80;2.37;;;;;;;;;;5052737;22;20566;-55
2023/12/02 03:48:35;;;;;;;3.60;3.03;;;;;;;;;;5049986;28;20481;-52
2023/12/02 03:51:02;;;;;;;3.20;2.90;;;;;;;;;;5050339;28;20449;-52
2023/12/02 03:53:30;;;;;;;3.77;3.00;;;;;;;;;;5048690;28;20483;-52
2023/12/02 03:55:58;;;;;;;2.80;2.50;;;;;;;;;;5045958;28;20507;-51
2023/12/02 03:58:27;;;;;;;2.20;1.90;;;;;;;;;;5050260;28;20564;-51
2023/12/02 04:00:55;;;;;;;2.90;2.33;;;;;;;;;;5050408;28;20445;-51
2023/12/02 04:03:22;;;;;;;3.50;2.50;;;;;;;;;;5050645;28;20448;-51
2023/12/02 04:05:51;;;;;;;30.30;19.83;;;;;;;;;;5050105;28;20469;-51
2023/12/02 04:08:18;;;;;;;11.30;6.33;;;;;;;;;;5049838;28;21218;-52
2023/12/02 04:10:46;;;;;;;2.43;2.00;;;;;;;;;;5049136;28;20438;-53
2023/12/02 04:13:13;;;;;;;3.80;2.43;;;;;;;;;;5049107;28;20827;-52
2023/12/02 04:15:41;;;;;;;2.30;1.50;;;;;;;;;;5050002;28;20468;-51
2023/12/02 04:18:08;;;;;;;1.60;1.10;;;;;;;;;;5050372;28;20473;-51
2023/12/02 04:20:35;;;;;;;2.00;1.50;;;;;;;;;;5050272;28;20442;-51
2023/12/02 04:23:05;;;;;;;1.90;1.40;;;;;;;;;;5049725;28;20453;-52
2023/12/02 04:25:32;;;;;;;2.10;1.60;;;;;;;;;;5050041;28;20562;-53
2023/12/02 04:27:59;;;;;;;2.60;1.90;;;;;;;;;;5049809;28;20827;-53
2023/12/02 04:30:27;;;;;;;2.27;1.40;;;;;;;;;;5053445;28;20430;-51
2023/12/02 04:32:54;;;;;;;2.40;1.63;;;;;;;;;;5054054;28;20503;-51
2023/12/02 04:35:22;;;;;;;2.03;1.57;;;;;;;;;;5054326;28;20465;-52
2023/12/02 04:37:49;;;;;;;1.80;1.40;;;;;;;;;;5054214;28;20438;-52
2023/12/02 04:40:18;;;;;;;2.00;1.40;;;;;;;;;;5053476;28;20477;-54
2023/12/02 04:42:45;;;;;;;2.03;1.60;;;;;;;;;;5053203;28;20438;-52
2023/12/02 04:45:13;;;;;;;2.53;1.40;;;;;;;;;;5053950;28;20477;-53
2023/12/02 04:47:40;;;;;;;1.60;1.03;;;;;;;;;;5053845;28;20869;-52
2023/12/02 04:50:08;;;;;;;2.53;1.67;;;;;;;;;;5053754;28;20546;-52
2023/12/02 04:52:36;;;;;;;2.83;1.70;;;;;;;;;;5053308;28;20473;-53
2023/12/02 04:55:03;;;;;;;2.20;1.20;;;;;;;;;;5053709;28;20473;-52
2023/12/02 04:57:33;;;;;;;2.57;1.70;;;;;;;;;;5053742;28;20511;-54
2023/12/02 05:00:00;;;;;;;6.60;3.60;;;;;;;;;;5053335;28;20441;-51
2023/12/02 05:02:27;;;;;;;2.50;1.77;;;;;;;;;;5053588;28;20456;-52
2023/12/02 05:04:55;;;;;;;2.37;1.60;;;;;;;;;;5053393;28;20458;-51
2023/12/02 05:07:22;;;;;;;2.40;1.90;;;;;;;;;;5053230;28;20449;-53
2023/12/02 05:09:49;;;;;;;2.63;1.73;;;;;;;;;;5053189;28;20495;-52
2023/12/02 05:12:16;;;;;;;2.83;1.70;;;;;;;;;;5053950;28;20479;-52
2023/12/02 05:14:45;;;;;;;3.20;1.80;;;;;;;;;;5052324;28;20469;-52
2023/12/02 05:17:12;;;;;;;2.43;1.77;;;;;;;;;;5053421;28;20457;-54
2023/12/02 05:19:40;;;;;;;2.67;1.33;;;;;;;;;;5053617;28;20940;-53
2023/12/02 05:22:08;;;;;;;2.30;1.47;;;;;;;;;;5052965;28;20448;-53
2023/12/02 05:24:35;;;;;;;2.17;1.40;;;;;;;;;;5052517;28;20492;-52
2023/12/02 05:27:02;;;;;;;2.33;1.57;;;;;;;;;;5053434;28;20441;-54
2023/12/02 05:29:30;;;;;;;1.97;1.40;;;;;;;;;;5052945;28;20860;-52
2023/12/02 05:31:58;;;;;;;2.30;1.50;;;;;;;;;;5045523;28;20467;-51
2023/12/02 05:34:26;;;;;;;2.00;1.50;;;;;;;;;;5051864;28;20466;-51
2023/12/02 05:36:53;;;;;;;2.13;1.60;;;;;;;;;;5051128;28;20986;-52
2023/12/02 05:39:20;;;;;;;2.07;1.80;;;;;;;;;;5051286;28;20557;-52
2023/12/02 05:41:48;;;;;;;2.30;1.70;;;;;;;;;;5050852;28;20467;-53
2023/12/02 05:44:15;;;;;;;2.37;1.90;;;;;;;;;;5051116;28;20442;-51
2023/12/02 05:46:42;;;;;;;2.47;1.90;;;;;;;;;;5051699;28;20467;-52
2023/12/02 05:49:11;;;;;;;2.33;1.90;;;;;;;;;;5052138;28;20485;-53
2023/12/02 05:51:39;;;;;;;2.10;1.80;;;;;;;;;;5052208;28;20513;-51
2023/12/02 05:54:08;;;;;;;2.30;1.53;;;;;;;;;;5052321;28;20533;-54
2023/12/02 05:56:35;;;;;;;2.47;2.00;;;;;;;;;;5052501;28;20940;-52
2023/12/02 05:59:03;;;;;;;2.00;1.70;;;;;;;;;;5052780;28;20444;-53
2023/12/02 06:01:30;;;;;;;3.20;1.90;;;;;;;;;;5052190;28;20449;-53
2023/12/02 06:03:57;;;;;;;2.80;2.30;;;;;;;;;;5052395;28;20451;-51
2023/12/02 06:06:26;;;;;;;3.23;2.03;;;;;;;;;;5052543;28;20442;-51
2023/12/02 06:08:53;;;;;;;2.60;1.90;;;;;;;;;;5051363;28;20518;-52
2023/12/02 06:11:21;;;;;;;2.80;2.10;;;;;;;;;;5052362;28;20562;-53
2023/12/02 06:13:48;;;;;;;3.20;2.70;;;;;;;;;;5052357;28;20492;-53
2023/12/02 06:16:15;;;;;;;3.57;2.60;;;;;;;;;;5052484;28;20521;-51
2023/12/02 06:18:43;;;;;;;3.53;2.50;;;;;;;;;;5052194;28;20455;-52
2023/12/02 06:21:12;;;;;;;2.63;1.77;;;;;;;;;;5052395;28;20532;-52
2023/12/02 06:23:41;;;;;;;2.60;2.20;;;;;;;;;;5051905;28;20534;-52
2023/12/02 06:26:08;;;;;;;3.50;2.87;;;;;;;;;;5052104;28;20463;-51
2023/12/02 06:28:36;;;;;;;2.33;1.80;;;;;;;;;;5051425;28;20452;-53
2023/12/02 06:31:03;;;;;;;2.60;2.07;;;;;;;;;;5052161;28;20794;-51
2023/12/02 06:33:31;;;;;;;3.90;2.50;;;;;;;;;;5052358;28;20479;-51
2023/12/02 06:35:58;;;;;;;4.70;3.23;;;;;;;;;;5051240;28;20500;-53
2023/12/02 06:38:26;;;;;;;3.23;2.93;;;;;;;;;;5051467;28;20531;-53
2023/12/02 06:40:55;;;;;;;3.10;2.80;;;;;;;;;;5051898;28;20437;-52
2023/12/02 06:43:22;;;;;;;3.10;2.23;;;;;;;;;;5051750;28;20479;-54
2023/12/02 06:45:51;;;;;;;4.90;2.73;;;;;;;;;;5051528;28;20482;-51
2023/12/02 06:48:18;;;;;;;2.60;1.97;;;;;;;;;;5050499;28;20736;-52
2023/12/02 06:50:46;;;;;;;2.30;1.90;;;;;;;;;;5050159;28;20845;-51
2023/12/02 06:53:15;;;;;;;2.23;1.77;;;;;;;;;;5048232;28;20442;-53
2023/12/02 06:55:43;;;;;;;4.13;2.60;;;;;;;;;;5050272;28;20465;-53
2023/12/02 06:58:11;;;;;;;4.43;3.53;;;;;;;;;;5050059;28;20520;-52
2023/12/02 07:00:39;;;;;;;3.50;2.90;;;;;;;;;;5050119;28;20515;-54
2023/12/02 07:03:08;;;;;;;4.60;3.43;;;;;;;;;;5051455;28;20474;-53
2023/12/02 07:05:36;;;;;;;11.47;7.20;;;;;;;;;;5051302;28;20477;-52
2023/12/02 07:08:04;;;;;;;10.93;7.80;;;;;;;;;;5050821;28;20845;-52
2023/12/02 07:10:31;;;;;;;5.97;5.47;;;;;;;;;;5051064;28;20483;-51
2023/12/02 07:12:58;;;;;;;9.37;6.77;;;;;;;;;;5051386;28;20448;-54
2023/12/02 07:15:27;;;;;;;3.90;3.50;;;;;;;;;;5051232;28;20467;-53
2023/12/02 07:17:54;;;;;;;3.80;2.70;;;;;;;;;;5050203;28;20796;-52
2023/12/02 07:20:22;;;;;;;2.77;2.47;;;;;;;;;;5049823;28;20438;-52
2023/12/02 07:22:49;;;;;;;2.87;2.03;;;;;;;;;;5049244;28;20517;-54
2023/12/02 07:25:17;;;;;;;7.50;3.90;;;;;;;;;;5049502;28;20523;-52
2023/12/02 07:39:10;;;;;;;3.43;3.10;;;;;;;;;;5109999;27;20631;-53
2023/12/02 07:41:37;;;;;;;3.80;3.30;;;;;;;;;;5104696;28;20455;-53
2023/12/02 07:44:05;;;;;;;3.80;2.77;;;;;;;;;;5087172;28;20445;-53
2023/12/02 07:46:32;;;;;;;3.67;3.37;;;;;;;;;;5086117;28;20452;-54
2023/12/02 07:48:59;;;;;;;3.07;2.77;;;;;;;;;;5085460;28;20869;-54
2023/12/02 07:51:27;;;;;;;3.60;2.67;;;;;;;;;;5086452;28;20451;-55
2023/12/02 07:53:54;;;;;;;3.13;2.53;;;;;;;;;;5084217;28;20856;-55
2023/12/02 07:56:23;;;;;;;2.97;2.67;;;;;;;;;;5087340;28;20642;-53
2023/12/02 07:58:51;;;;;;;4.40;3.67;;;;;;;;;;5092936;28;20464;-53
2023/12/02 08:01:18;;;;;;;5.20;4.20;;;;;;;;;;5096986;28;20434;-55
2023/12/02 08:03:45;;;;;;;3.27;2.97;;;;;;;;;;5090779;28;20874;-52
2023/12/02 08:06:13;;;;;;;3.70;3.03;;;;;;;;;;5089147;28;20433;-52
2023/12/02 08:08:40;;;;;;;3.60;2.87;;;;;;;;;;5094415;28;20892;-54
2023/12/02 08:11:08;;;;;;;3.77;3.43;;;;;;;;;;5087019;28;20438;-52
2023/12/02 08:13:36;;;;;;;4.47;3.70;;;;;;;;;;5086792;28;20584;-53
2023/12/02 08:16:04;;;;;;;4.00;3.10;;;;;;;;;;5086484;28;20437;-52
2023/12/02 08:18:31;;;;;;;3.70;3.37;;;;;;;;;;5086754;28;20458;-52
2023/12/02 08:20:58;;;;;;;4.13;3.47;;;;;;;;;;5087074;28;20553;-51
2023/12/02 08:23:26;;;;;;;3.40;3.10;;;;;;;;;;5086812;28;20447;-51
2023/12/02 08:25:54;;;;;;;5.57;3.97;;;;;;;;;;5086514;28;20441;-52
2023/12/02 08:28:22;;;;;;;4.23;3.83;;;;;;;;;;5086204;28;20541;-54
2023/12/02 08:30:50;;;;;;;3.67;3.37;;;;;;;;;;5085863;28;20450;-57
2023/12/02 08:33:18;;;;;;;4.83;3.70;;;;;;;;;;5086574;28;20442;-54
2023/12/02 08:35:45;;;;;;;4.40;4.03;;;;;;;;;;5086273;28;20449;-54
2023/12/02 08:38:12;;;;;;;5.00;4.47;;;;;;;;;;5086056;28;20449;-54
2023/12/02 08:40:40;;;;;;;5.50;4.83;;;;;;;;;;5079771;28;20814;-54
2023/12/02 08:43:07;;;;;;;4.90;4.40;;;;;;;;;;5085024;28;21013;-52
2023/12/02 08:45:34;;;;;;;5.17;4.50;;;;;;;;;;5083112;28;20443;-52
2023/12/02 08:48:03;;;;;;;4.70;4.00;;;;;;;;;;5080544;28;20983;-55
2023/12/02 08:50:31;;;;;;;19.00;14.20;;;;;;;;;;5081783;28;20440;-55
2023/12/02 08:52:58;;;;;;;7.17;4.80;;;;;;;;;;5080188;28;20921;-54
2023/12/02 08:55:25;;;;;;;4.80;4.40;;;;;;;;;;5083125;28;20441;-53
2023/12/02 08:57:53;;;;;;;4.60;4.00;;;;;;;;;;5072052;28;20432;-52
2023/12/02 09:00:20;;;;;;;5.60;4.47;;;;;;;;;;5072558;28;20477;-51
2023/12/02 09:02:48;;;;;;;5.67;5.17;;;;;;;;;;5072820;28;20439;-53
2023/12/02 09:05:16;;;;;;;5.63;4.47;;;;;;;;;;5072688;28;20439;-53
2023/12/02 09:07:44;;;;;;;5.53;5.03;;;;;;;;;;5071382;28;20936;-52
2023/12/02 09:10:11;;;;;;;5.63;5.13;;;;;;;;;;5085329;28;20459;-53
2023/12/02 09:12:38;;;;;;;4.57;4.17;;;;;;;;;;5087862;28;20432;-52
2023/12/02 09:15:08;;;;;;;5.13;4.63;;;;;;;;;;5092065;28;20442;-52
2023/12/02 09:17:47;;;;;;;6.00;5.50;;;;;;;;;;5091936;28;20570;-54
2023/12/02 09:20:30;;;;;;;6.20;5.70;;;;;;;;;;5092205;28;20467;-52
2023/12/02 09:23:01;;;;;;;5.07;4.57;;;;;;;;;;5091121;28;20938;-53
2023/12/02 09:25:29;;;;;;;5.43;4.93;;;;;;;;;;5092179;28;20444;-51
2023/12/02 09:28:15;;;;;;;6.93;5.27;;;;;;;;;;5090937;28;20470;-52
2023/12/02 09:30:46;;;;;;;5.70;5.10;;;;;;;;;;5083742;28;20463;-57
2023/12/02 09:33:13;;;;;;;5.73;5.10;;;;;;;;;;5066673;28;20431;-52
2023/12/02 09:35:42;;;;;;;5.70;5.20;;;;;;;;;;5071446;28;20471;-51
2023/12/02 09:38:10;;;;;;;6.40;5.57;;;;;;;;;;5065470;28;20485;-52
2023/12/02 09:40:38;;;;;;;6.47;5.87;;;;;;;;;;5071651;28;20448;-52
2023/12/02 09:43:15;;;;;;;5.53;5.03;;;;;;;;;;5071769;28;20585;-52
2023/12/02 09:45:47;;;;;;;5.07;4.57;;;;;;;;;;5071806;28;20445;-54
2023/12/02 09:48:17;;;;;;;5.10;4.70;;;;;;;;;;5071725;28;20522;-54
2023/12/02 09:50:51;;;;;;;5.87;4.90;;;;;;;;;;5071192;28;20452;-52
2023/12/02 09:53:22;;;;;;;6.80;6.10;;;;;;;;;;5071868;28;20881;-52
2023/12/02 09:55:53;;;;;;;7.20;6.50;;;;;;;;;;5071314;28;20448;-53
2023/12/02 09:58:22;;;;;;;6.43;5.80;;;;;;;;;;5071221;28;20489;-52
2023/12/02 10:00:51;;;;;;;7.47;6.77;;;;;;;;;;5071806;28;20530;-52
2023/12/02 10:03:27;;;;;;;6.90;6.30;;;;;;;;;;5071637;28;20446;-53
2023/12/02 10:06:01;;;;;;;7.60;6.80;;;;;;;;;;5071475;28;20451;-53
2023/12/02 10:08:34;;;;;;;7.33;6.63;;;;;;;;;;5071131;28;20489;-55
2023/12/02 10:11:04;;;;;;;5.93;5.33;;;;;;;;;;5071596;28;20454;-54
2023/12/02 10:13:36;;;;;;;9.20;6.80;;;;;;;;;;5071594;28;20458;-53
2023/12/02 10:16:06;;;;;;;5.93;5.33;;;;;;;;;;5071263;28;20959;-53
2023/12/02 10:18:35;;;;;;;10.80;9.73;;;;;;;;;;5070859;28;20492;-53
2023/12/02 10:21:08;;;;;;;6.97;6.27;;;;;;;;;;5071142;28;20810;-52
2023/12/02 10:23:38;;;;;;;3.43;3.13;;;;;;;;;;5071289;28;20453;-53
2023/12/02 10:26:07;;;;;;;3.30;2.97;;;;;;;;;;5071258;28;20498;-51
2023/12/02 10:28:39;;;;;;;5.00;4.03;;;;;;;;;;5071228;28;20508;-55
2023/12/02 10:31:07;;;;;;;5.07;4.57;;;;;;;;;;5071030;28;20451;-54
2023/12/02 10:33:36;;;;;;;5.90;4.30;;;;;;;;;;5071177;28;20456;-53
2023/12/02 10:36:07;;;;;;;3.70;3.00;;;;;;;;;;5070244;28;20447;-53
2023/12/02 10:38:51;;;;;;;4.20;3.50;;;;;;;;;;5070019;28;21051;-53
2023/12/02 10:41:22;;;;;;;3.30;3.00;;;;;;;;;;5064110;28;20940;-52
2023/12/02 10:43:51;;;;;;;4.77;3.60;;;;;;;;;;5070781;28;20514;-54
2023/12/02 10:46:19;;;;;;;3.87;3.30;;;;;;;;;;5070545;28;20926;-52
2023/12/02 10:48:46;;;;;;;2.77;2.33;;;;;;;;;;5069965;28;20455;-52
2023/12/02 10:51:16;;;;;;;4.00;3.10;;;;;;;;;;5071005;28;20509;-53
2023/12/02 10:53:44;;;;;;;2.73;2.10;;;;;;;;;;5070930;28;20531;-52
2023/12/02 10:56:13;;;;;;;4.13;2.40;;;;;;;;;;5059383;28;20446;-51
2023/12/02 10:58:41;;;;;;;3.23;2.40;;;;;;;;;;5052057;28;20860;-54
2023/12/02 11:01:10;;;;;;;2.40;1.90;;;;;;;;;;5054181;28;20821;-54
2023/12/02 11:03:40;;;;;;;3.00;2.70;;;;;;;;;;5058880;28;20476;-54
2023/12/02 11:06:11;;;;;;;3.00;2.60;;;;;;;;;;5068951;28;20445;-55
2023/12/02 11:08:48;;;;;;;3.17;2.30;;;;;;;;;;5068972;28;20898;-55
2023/12/02 11:11:22;;;;;;;3.20;2.60;;;;;;;;;;5069564;28;20531;-55
2023/12/02 11:13:49;;;;;;;4.10;3.30;;;;;;;;;;5069496;28;20444;-55
2023/12/02 11:16:20;;;;;;;3.43;2.90;;;;;;;;;;5069994;28;20515;-53
2023/12/02 11:18:57;;;;;;;2.97;2.60;;;;;;;;;;5069916;28;20564;-53
2023/12/02 11:21:29;;;;;;;3.70;2.60;;;;;;;;;;5070302;28;20928;-53
2023/12/02 11:24:03;;;;;;;3.87;2.83;;;;;;;;;;5070419;28;20535;-52
2023/12/02 11:26:36;;;;;;;10.67;5.90;;;;;;;;;;5070528;28;21005;-54
2023/12/02 11:29:12;;;;;;;11.03;7.00;;;;;;;;;;5069822;28;20461;-51
2023/12/02 11:31:45;;;;;;;3.83;3.53;;;;;;;;;;5070547;28;20445;-52
2023/12/02 11:34:21;;;;;;;4.50;3.50;;;;;;;;;;5070034;28;20443;-51
2023/12/02 11:36:54;;;;;;;3.60;2.97;;;;;;;;;;5069980;28;20533;-54
2023/12/02 11:39:33;;;;;;;3.37;2.43;;;;;;;;;;5069905;28;20569;-55
2023/12/02 11:42:04;;;;;;;3.10;2.50;;;;;;;;;;5070089;28;20531;-53
2023/12/02 11:44:37;;;;;;;3.93;3.20;;;;;;;;;;5069907;28;20440;-53
2023/12/02 11:47:15;;;;;;;5.03;4.10;;;;;;;;;;5070008;28;20452;-53
2023/12/02 11:49:47;;;;;;;3.53;3.00;;;;;;;;;;5068620;28;20477;-53
2023/12/02 11:52:20;;;;;;;4.43;3.50;;;;;;;;;;5066413;28;20430;-52
2023/12/02 11:54:57;;;;;;;3.77;3.30;;;;;;;;;;5069664;28;20437;-52
2023/12/02 11:57:28;;;;;;;3.30;3.00;;;;;;;;;;5070217;28;20914;-53
2023/12/02 12:00:14;;;;;;;4.30;3.50;;;;;;;;;;5069153;28;20480;-51
2023/12/02 12:02:55;;;;;;;4.47;4.03;;;;;;;;;;5068422;28;20455;-53
2023/12/02 12:05:32;;;;;;;4.90;3.97;;;;;;;;;;5069689;28;20436;-52
2023/12/02 12:08:03;;;;;;;4.47;3.77;;;;;;;;;;5068500;28;20447;-50
2023/12/02 12:10:34;;;;;;;4.27;3.43;;;;;;;;;;5067332;28;20859;-53
2023/12/02 12:13:02;;;;;;;3.50;2.90;;;;;;;;;;5068697;28;20494;-51
2023/12/02 12:15:29;;;;;;;3.50;2.90;;;;;;;;;;5071121;28;20436;-54
2023/12/02 12:17:57;;;;;;;4.43;3.27;;;;;;;;;;5069461;28;20469;-50
2023/12/02 12:20:25;;;;;;;4.50;3.23;;;;;;;;;;5071606;28;20440;-52
2023/12/02 12:22:53;;;;;;;4.20;3.43;;;;;;;;;;5068403;28;20452;-51
2023/12/02 12:25:21;;;;;;;3.70;2.73;;;;;;;;;;5071301;28;20444;-52
2023/12/02 12:27:50;;;;;;;4.33;3.50;;;;;;;;;;5068945;28;20441;-52
2023/12/02 12:30:17;;;;;;;5.67;4.50;;;;;;;;;;5070685;28;20456;-54
2023/12/02 12:32:44;;;;;;;5.97;4.53;;;;;;;;;;5069616;28;20447;-53
2023/12/02 12:35:14;;;;;;;4.23;3.70;;;;;;;;;;5070917;28;20434;-54
2023/12/02 12:37:42;;;;;;;4.80;4.30;;;;;;;;;;5071876;28;20447;-52
2023/12/02 12:40:10;;;;;;;3.80;3.20;;;;;;;;;;5072782;28;20487;-52
2023/12/02 12:42:45;;;;;;;5.40;3.80;;;;;;;;;;5072889;28;20440;-52
2023/12/02 12:45:14;;;;;;;4.53;3.30;;;;;;;;;;5066178;28;20497;-51
2023/12/02 12:47:42;;;;;;;4.20;3.60;;;;;;;;;;5072546;28;20995;-54
2023/12/02 12:50:12;;;;;;;4.60;3.27;;;;;;;;;;5072739;28;20825;-51
2023/12/02 12:52:43;;;;;;;4.60;3.57;;;;;;;;;;5073192;28;20895;-52
2023/12/02 12:55:11;;;;;;;3.80;3.10;;;;;;;;;;5072987;28;20487;-52
2023/12/02 12:57:42;;;;;;;5.77;3.90;;;;;;;;;;5072589;28;20528;-52
2023/12/02 13:00:11;;;;;;;4.67;4.17;;;;;;;;;;5072786;28;21006;-51
2023/12/02 13:02:46;;;;;;;4.50;3.70;;;;;;;;;;5072314;28;20468;-52
2023/12/02 13:05:17;;;;;;;4.60;3.80;;;;;;;;;;5072739;28;20528;-53
2023/12/02 13:07:48;;;;;;;4.30;3.87;;;;;;;;;;5072324;28;20437;-52
2023/12/02 13:10:16;;;;;;;4.13;3.50;;;;;;;;;;5060259;28;20457;-52
2023/12/02 13:12:45;;;;;;;4.50;4.10;;;;;;;;;;5053052;28;20461;-51
2023/12/02 13:15:15;;;;;;;4.47;3.67;;;;;;;;;;5060682;28;20447;-52
2023/12/02 13:17:47;;;;;;;5.80;4.70;;;;;;;;;;5068623;28;20437;-52
2023/12/02 13:20:17;;;;;;;5.47;3.90;;;;;;;;;;5072681;28;20484;-51
2023/12/02 13:22:45;;;;;;;4.93;4.27;;;;;;;;;;5072288;28;20927;-52
2023/12/02 13:25:14;;;;;;;5.17;4.23;;;;;;;;;;5072107;28;20440;-52
2023/12/02 13:27:49;;;;;;;5.60;4.13;;;;;;;;;;5072272;28;20527;-52
2023/12/02 13:30:17;;;;;;;5.23;4.33;;;;;;;;;;5071819;28;20830;-52
2023/12/02 13:32:48;;;;;;;7.43;4.50;;;;;;;;;;5072079;28;20448;-53
2023/12/02 13:35:16;;;;;;;4.00;3.60;;;;;;;;;;5071933;28;20444;-52
2023/12/02 13:37:53;;;;;;;6.20;4.90;;;;;;;;;;5071450;28;20453;-51
2023/12/02 13:40:23;;;;;;;5.20;4.70;;;;;;;;;;5071997;28;21001;-53
2023/12/02 13:42:51;;;;;;;5.23;3.87;;;;;;;;;;5070682;28;20809;-52
2023/12/02 13:45:21;;;;;;;6.37;4.87;;;;;;;;;;5102240;22;20543;-87
2023/12/02 13:47:56;;;;;;;5.50;4.90;;;;;;;;;;5085149;28;20436;-87
2023/12/02 13:50:24;;;;;;;6.00;4.97;;;;;;;;;;5072050;28;20888;-86
2023/12/02 13:52:54;;;;;;;5.20;4.60;;;;;;;;;;5064494;28;20440;-87
2023/12/02 13:55:37;;;;;;;6.57;5.30;;;;;;;;;;5059372;28;20444;-87
2023/12/02 13:58:10;;;;;;;6.00;4.90;;;;;;;;;;5079238;22;20497;-54
2023/12/02 14:00:41;;;;;;;6.40;5.80;;;;;;;;;;5044688;28;21001;-54
2023/12/02 14:03:18;;;;;;;10.07;7.30;;;;;;;;;;5040604;28;20446;-54
2023/12/02 14:05:47;;;;;;;10.30;8.37;;;;;;;;;;5032175;28;20457;-54
2023/12/02 14:08:17;;;;;;;8.63;7.73;;;;;;;;;;5031651;28;20438;-55
2023/12/02 14:10:46;;;;;;;10.63;9.33;;;;;;;;;;5031953;28;20489;-55
2023/12/02 14:13:26;;;;;;;14.53;10.60;;;;;;;;;;5033043;28;20475;-54
2023/12/02 14:15:57;;;;;;;12.40;10.90;;;;;;;;;;5050189;28;20439;-55
2023/12/02 14:18:45;;;;;;;10.97;9.20;;;;;;;;;;5052157;28;20503;-53
2023/12/02 14:21:17;;;;;;;11.10;9.20;;;;;;;;;;5052291;28;20502;-54
2023/12/02 14:23:57;;;;;;;12.73;10.23;;;;;;;;;;5050938;28;20441;-54
2023/12/02 14:26:38;;;;;;;13.00;10.30;;;;;;;;;;5050790;28;20452;-55
2023/12/02 14:29:14;;;;;;;11.77;10.57;;;;;;;;;;5050032;28;21016;-55
2023/12/02 14:31:52;;;;;;;13.80;11.23;;;;;;;;;;5050642;28;20444;-55
2023/12/02 14:34:30;;;;;;;11.40;10.20;;;;;;;;;;5051134;28;20484;-54
2023/12/02 14:37:08;;;;;;;11.43;10.30;;;;;;;;;;5050719;28;20471;-55
2023/12/02 14:39:46;;;;;;;10.73;9.60;;;;;;;;;;5047045;28;20564;-56
2023/12/02 14:42:14;;;;;;;11.23;9.50;;;;;;;;;;5044510;28;20452;-54
2023/12/02 14:44:42;;;;;;;12.40;9.80;;;;;;;;;;5043821;28;20814;-54
2023/12/02 14:47:13;;;;;;;13.40;11.00;;;;;;;;;;5051529;28;20441;-54
2023/12/02 14:49:44;;;;;;;12.53;10.70;;;;;;;;;;5051497;28;20441;-54
2023/12/02 14:52:11;;;;;;;13.93;11.03;;;;;;;;;;5051898;28;20445;-55
2023/12/02 14:54:42;;;;;;;14.70;11.90;;;;;;;;;;5052130;28;20496;-55
2023/12/02 14:57:16;;;;;;;20.10;13.43;;;;;;;;;;5051660;28;20971;-54
2023/12/02 14:59:44;;;;;;;15.07;12.17;;;;;;;;;;5051427;28;20488;-55
2023/12/02 15:02:26;;;;;;;12.97;11.67;;;;;;;;;;5051924;28;20445;-55
2023/12/02 15:04:55;;;;;;;10.50;9.10;;;;;;;;;;5051060;28;20471;-55